• Join FlightAware (Why Join?)
  • Login
  • US Flag 
04:10AM EDT


 

Airport Tracker/Info


-or-


 

Live Flight TrackerFlight Track Log ✈ UAL1 ✈ 20-May-2013 ✈ KIAH - KORD

Flight Track Log - Related Links

Times and Time Zones

All times are in EDT time to prevent confusion due to time zone crossing. See the UAL1 flight status page for this flight to view local times or setup timezone preferences in your user account.

Time Position Orientation Groundspeed Altitude Reporting Facility
EDT Latitude Longitude Course Direction KTS MPH feet Rate Location/Type
12:14PM 29.9738 -95.3492 270° West 138 159 200  Level FlightAware ADS-B
12:14PM 29.9648 -95.3435 151° Southeast 154 177 700 2,220 Climbing FlightAware ADS-B
12:14PM 29.9559 -95.3409 166° South 154 177 1,200 1,980 Climbing FlightAware ADS-B
12:14PM 29.9522 -95.3420 194° South 160 184 1,300 1,320 Climbing FlightAware ADS-B
12:14PM 29.9495 -95.3438 210° Southwest 169 194 1,400 1,500 Climbing FlightAware ADS-B
12:14PM 29.9472 -95.3461 221° Southwest 176 203 1,500 1,500 Climbing FlightAware ADS-B
12:14PM 29.9452 -95.3490 231° Southwest 185 213 1,600 2,220 Climbing FlightAware ADS-B
12:14PM 29.9433 -95.3532 242° Southwest 193 222 1,800 2,220 Climbing FlightAware ADS-B
12:14PM 29.9423 -95.3573 254° West 202 232 1,900 1,200 Climbing FlightAware ADS-B
12:14PM 29.9418 -95.3637 265° West 216 249 2,000 1,200 Climbing FlightAware ADS-B
12:15PM 29.9422 -95.3682 276° West 226 260 2,100 1,680 Climbing FlightAware ADS-B
12:15PM 29.9431 -95.3723 284° West 233 268 2,200 1,680 Climbing FlightAware ADS-B
12:15PM 29.9447 -95.3771 291° West 243 280 2,300 1,680 Climbing FlightAware ADS-B
12:15PM 29.9464 -95.3808 298° West 251 289 2,400 1,680 Climbing FlightAware ADS-B
12:15PM 29.9485 -95.3844 304° West 256 295 2,500 1,500 Climbing FlightAware ADS-B
12:15PM 29.9525 -95.3895 312° West 265 305 2,600 2,220 Climbing FlightAware ADS-B
12:15PM 29.9557 -95.3926 320° Northwest 270 311 2,800 2,520 Climbing FlightAware ADS-B
12:15PM 29.9595 -95.3956 326° Northwest 274 315 2,900 1,980 Climbing FlightAware ADS-B
12:15PM 29.9629 -95.3976 333° Northwest 278 320 3,000 2,640 Climbing FlightAware ADS-B
12:15PM 29.9692 -95.4005 338° Northwest 285 328 3,300 2,640 Climbing FlightAware ADS-B
12:15PM 29.9736 -95.4018 346° North 288 331 3,400 1,980 Climbing FlightAware ADS-B
12:15PM 29.9779 -95.4025 352° North 290 334 3,500 1,680 Climbing FlightAware ADS-B
12:15PM 29.9825 -95.4029 356° North 290 334 3,600 1,500 Climbing FlightAware ADS-B
12:15PM 29.9887 -95.4030 359° North 294 338 3,700 1,020 Climbing FlightAware ADS-B
12:16PM 30.0059 -95.4020 North 292 336 3,900 720 Climbing FlightAware ADS-B
12:16PM 30.0214 -95.4009 North 297 342 4,000 180 Climbing FlightAware ADS-B
12:16PM 30.0427 -95.3993 North 298 343 4,000  Level FlightAware ADS-B
12:16PM 30.0460 -95.3990 North 289 333 4,000  Level FlightAware ADS-B
12:16PM 30.0644 -95.3977 North 297 342 4,000  Level FlightAware ADS-B
12:16PM 30.0660 -95.3980 351° North 216 249 4,000  Level FlightAware ADS-B
12:16PM 30.0808 -95.3964 North 297 342 4,000  Level FlightAware ADS-B
12:17PM 30.0960 -95.3950 North 326 375 4,000  Level FlightAware ADS-B
12:17PM 30.1024 -95.3947 North 298 343 4,000  Level FlightAware ADS-B
12:17PM 30.1200 -95.3930 North 290 334 4,000  Level FlightAware ADS-B
12:17PM 30.1231 -95.3930 360° North 294 338 4,000 720 Level FlightAware ADS-B
12:17PM 30.1436 -95.3915 North 296 341 4,200 660 Climbing FlightAware ADS-B
12:17PM 30.1450 -95.3910 17° North 309 356 4,200 2,220 Level FlightAware ADS-B
12:18PM 30.1647 -95.3898 North 299 344 4,800 2,640 Climbing FlightAware ADS-B
12:18PM 30.1700 -95.3890 North 307 353 5,000 3,180 Climbing FlightAware ADS-B
12:18PM 30.1866 -95.3878 North 304 350 5,600 3,480 Climbing FlightAware ADS-B
12:18PM 30.1950 -95.3870 North 309 356 6,000 3,360 Climbing FlightAware ADS-B
12:18PM 30.2093 -95.3856 North 308 354 6,500 2,820 Climbing FlightAware ADS-B
12:18PM 30.2210 -95.3840 North 326 375 6,900 3,180 Climbing FlightAware ADS-B
12:18PM 30.2299 -95.3836 North 309 356 7,300 3,780 Climbing FlightAware ADS-B
12:18PM 30.2371 -95.3833 North 308 354 7,600 3,960 Climbing FlightAware ADS-B
12:18PM 30.2438 -95.3837 357° North 306 352 7,900 3,420 Climbing FlightAware ADS-B
12:18PM 30.2470 -95.3840 355° North 306 352 8,000 3,420 Climbing FlightAware ADS-B
12:19PM 30.2532 -95.3856 347° North 300 345 8,300 4,800 Climbing FlightAware ADS-B
12:19PM 30.2550 -95.3860 349° North 310 357 8,400 3,960 Climbing FlightAware ADS-B
12:19PM 30.2572 -95.3869 341° North 297 342 8,500 3,600 Climbing FlightAware ADS-B
12:19PM 30.2614 -95.3885 342° North 295 339 8,700 4,500 Climbing FlightAware ADS-B
12:19PM 30.2630 -95.3890 345° North 298 343 8,800 3,960 Climbing FlightAware ADS-B
12:19PM 30.2686 -95.3921 334° Northwest 293 337 9,100 3,420 Climbing FlightAware ADS-B
12:19PM 30.2700 -95.3930 331° Northwest 291 335 9,200 3,960 Climbing FlightAware ADS-B
12:19PM 30.2722 -95.3942 335° Northwest 292 336 9,300 2,340 Climbing FlightAware ADS-B
12:19PM 30.3095 -95.4191 330° Northwest 310 357 10,500 2,040 Climbing FlightAware ADS-B
12:19PM 30.3130 -95.4210 335° Northwest 312 359 10,500 960 Level FlightAware ADS-B
12:20PM 30.3513 -95.4471 330° Northwest 354 407 11,000 960 Climbing FlightAware ADS-B
12:20PM 30.3540 -95.4490 329° Northwest 351 404 11,000 2,160 Level FlightAware ADS-B
12:20PM 30.3957 -95.4768 330° Northwest 372 428 12,100 2,460 Climbing FlightAware ADS-B
12:20PM 30.4070 -95.4850 328° Northwest 376 433 12,500 3,360 Climbing FlightAware ADS-B
12:21PM 30.4416 -95.5075 331° Northwest 379 436 13,800 3,180 Climbing FlightAware ADS-B
12:21PM 30.4530 -95.5150 330° Northwest 389 448 14,100 3,060 Climbing FlightAware ADS-B
12:21PM 30.4881 -95.5387 330° Northwest 384 442 15,400 3,360 Climbing FlightAware ADS-B
12:21PM 30.4990 -95.5460 330° Northwest 485 558 15,800 3,360 Climbing FlightAware ADS-B
12:22PM 30.5346 -95.5698 330° Northwest 385 443 17,100 3,000 Climbing FlightAware ADS-B
12:22PM 30.5440 -95.5760 330° Northwest 371 427 17,300 2,700 Climbing FlightAware ADS-B
12:22PM 30.5827 -95.6020 330° Northwest 392 451 18,500 3,060 Climbing FlightAware ADS-B
12:23PM 30.6010 -95.6140 331° Northwest 391 450 19,100 2,280 Climbing FlightAware ADS-B
12:23PM 30.6326 -95.6355 330° Northwest 409 471 19,700 1,320 Climbing FlightAware ADS-B
12:23PM 30.6500 -95.6480 328° Northwest 418 481 19,800 960 Climbing FlightAware ADS-B
12:23PM 30.6953 -95.6779 330° Northwest 444 511 20,300 1,440 Climbing FlightAware ADS-B
12:24PM 30.7020 -95.6820 332° Northwest 447 514 20,500 2,280 Climbing FlightAware ADS-B
12:24PM 30.7503 -95.7146 330° Northwest 455 524 21,500 2,220 Climbing FlightAware ADS-B
12:24PM 30.7670 -95.7260 330° Northwest 445 512 21,900 3,000 Climbing FlightAware ADS-B
12:25PM 30.8050 -95.7518 330° Northwest 454 522 23,000 3,180 Climbing FlightAware ADS-B
12:25PM 30.8220 -95.7630 331° Northwest 460 529 23,500 2,400 Climbing FlightAware ADS-B
12:25PM 30.8606 -95.7893 330° Northwest 460 529 24,200 2,040 Climbing FlightAware ADS-B
12:25PM 30.8780 -95.8010 330° Northwest 459 528 24,500 2,100 Climbing FlightAware ADS-B
12:26PM 30.9171 -95.8273 330° Northwest 467 537 25,300 2,160 Climbing FlightAware ADS-B
12:26PM 30.9450 -95.8460 330° Northwest 487 560 25,800 2,100 Climbing FlightAware ADS-B
12:26PM 30.9755 -95.8669 330° Northwest 474 545 26,400 1,980 Climbing FlightAware ADS-B
12:26PM 31.0020 -95.8850 330° Northwest 478 550 26,800 2,100 Climbing FlightAware ADS-B
12:27PM 31.0413 -95.9116 330° Northwest 477 549 27,600 2,280 Climbing FlightAware ADS-B
12:27PM 31.0700 -95.9310 330° Northwest 481 554 28,200 2,220 Climbing FlightAware ADS-B
12:27PM 31.0877 -95.9428 330° Northwest 480 552 28,500 1,680 Climbing FlightAware ADS-B
12:27PM 31.1197 -95.9601 335° Northwest 486 559 28,900 1,620 Climbing FlightAware ADS-B
12:27PM 31.1310 -95.9650 340° North 486 559 29,100 1,860 Climbing FlightAware ADS-B
12:28PM 31.1536 -95.9737 342° North 492 566 29,400 1,740 Climbing FlightAware ADS-B
12:28PM 31.1853 -95.9825 347° North 497 572 29,800 1,560 Climbing FlightAware ADS-B
12:28PM 31.2090 -95.9880 349° North 476 548 30,100 1,680 Climbing FlightAware ADS-B
12:28PM 31.2729 -96.0028 349° North 501 577 30,900 2,040 Climbing FlightAware ADS-B
12:29PM 31.2910 -96.0070 349° North 462 532 31,300 2,460 Climbing FlightAware ADS-B
12:29PM 31.3427 -96.0189 349° North 493 567 32,200 2,220 Climbing FlightAware ADS-B
12:29PM 31.3730 -96.0260 349° North 497 572 32,700 2,100 Climbing FlightAware ADS-B
12:29PM 31.4131 -96.0354 349° North 490 564 33,300 1,980 Climbing FlightAware ADS-B
12:30PM 31.4390 -96.0420 348° North 481 554 33,700 2,160 Climbing FlightAware ADS-B
12:30PM 31.4923 -96.0538 349° North 482 555 34,600 2,220 Climbing FlightAware ADS-B
12:30PM 31.5190 -96.0600 349° North 494 568 35,000 1,800 Climbing FlightAware ADS-B
12:31PM 31.5581 -96.0695 348° North 480 552 35,500 1,500 Climbing FlightAware ADS-B
12:31PM 31.5840 -96.0760 348° North 480 552 35,800 1,620 Climbing FlightAware ADS-B
12:31PM 31.6500 -96.0910 349° North 492 566 36,700 1,560 Climbing FlightAware ADS-B
12:32PM 31.7260 -96.1090 349° North 457 526 37,500 1,380 Climbing FlightAware ADS-B
12:32PM 31.8030 -96.1270 349° North 445 512 38,400 1,500 Climbing FlightAware ADS-B
12:33PM 31.8680 -96.1430 348° North 650 748 39,200 1,260 Climbing FlightAware ADS-B
12:33PM 31.9320 -96.1580 349° North 495 570 39,700 960 Climbing FlightAware ADS-B
12:34PM 31.9940 -96.1720 349° North 458 527 40,200 780 Climbing FlightAware ADS-B
12:35PM 32.0650 -96.1890 349° North 388 447 40,600 420 Climbing FlightAware ADS-B
12:35PM 32.1630 -96.2120 349° North 564 649 40,800 300 Climbing FlightAware ADS-B
12:36PM 32.2290 -96.2180 356° North 488 562 41,000 300 Climbing FlightAware ADS-B
12:36PM 32.2420 -96.2190 356° North 485 558 41,000  Level FlightAware ADS-B
12:37PM 32.3550 -96.2200 360° North 542 624 41,000 -120 Level FlightAware ADS-B
12:37PM 32.4230 -96.2210 359° North 522 601 40,900  Descending FlightAware ADS-B
12:38PM 32.4890 -96.2220 359° North 432 497 41,000 60 Climbing FlightAware ADS-B
12:39PM 32.6320 -96.2230 360° North 511 588 41,000  Level FlightAware ADS-B
12:40PM 32.7360 -96.2250 359° North 494 568 41,000  Level FlightAware
12:40PM 32.8170 -96.2260 359° North 41,000  Level FlightAware ADS-B
12:41PM 32.9320 -96.2270 360° North 494 568 41,000  Level FlightAware
12:42PM 33.0230 -96.2280 359° North 495 570 41,000  Level FlightAware
12:42PM 33.1100 -96.2290 359° North 496 571 41,000  Level FlightAware
12:43PM 33.2160 -96.2300 360° North 503 579 41,000  Level FlightAware
12:44PM 33.3100 -96.2310 359° North 507 583 41,000  Level FlightAware
12:44PM 33.4140 -96.2320 360° North 509 586 41,000  Level FlightAware
12:45PM 33.5090 -96.2240 North 514 592 41,000  Level FlightAware
12:46PM 33.6060 -96.1670 26° Northeast 523 602 41,000  Level FlightAware
12:47PM 33.6900 -96.1080 30° Northeast 522 601 41,000  Level FlightAware
12:47PM 33.7730 -96.0480 31° Northeast 522 601 41,000  Level FlightAware
12:48PM 33.8550 -95.9890 31° Northeast 523 602 41,000  Level FlightAware
12:49PM 33.9510 -95.9200 31° Northeast 524 603 41,000  Level FlightAware
12:49PM 34.0310 -95.8620 31° Northeast 526 605 41,000  Level FlightAware
12:50PM 34.1280 -95.7920 31° Northeast 525 604 41,000  Level FlightAware
12:51PM 34.2060 -95.7350 31° Northeast 525 604 41,000  Level FlightAware
12:51PM 34.3070 -95.6620 31° Northeast 525 604 41,000  Level FlightAware
12:52PM 34.3640 -95.6200 31° Northeast 525 604 41,000  Level FlightAware
12:53PM 34.4550 -95.5540 31° Northeast 526 605 41,000  Level FlightAware
12:53PM 34.5490 -95.4850 31° Northeast 527 606 41,000  Level FlightAware
12:54PM 34.6360 -95.4210 31° Northeast 527 606 41,000  Level FlightAware
12:55PM 34.7100 -95.3660 31° Northeast 527 606 41,000  Level FlightAware
12:55PM 34.7870 -95.3090 31° Northeast 526 605 41,000  Level FlightAware
12:56PM 34.8740 -95.2440 32° Northeast 526 605 41,000  Level FlightAware
12:57PM 34.9510 -95.1880 31° Northeast 526 605 41,000  Level FlightAware
12:58PM 35.0730 -95.0970 31° Northeast 526 605 41,000  Level FlightAware
12:58PM 35.1560 -95.0350 31° Northeast 526 605 41,000  Level FlightAware
12:59PM 35.2270 -94.9830 31° Northeast 526 605 41,000  Level FlightAware
01:00PM 35.3490 -94.8910 32° Northeast 525 604 41,000  Level FlightAware
01:01PM 35.4190 -94.8390 31° Northeast 525 604 41,000  Level FlightAware
01:01PM 35.4900 -94.7870 31° Northeast 525 604 41,000  Level FlightAware
01:02PM 35.6160 -94.6890 32° Northeast 524 603 41,000  Level FlightAware
01:03PM 35.7050 -94.6240 31° Northeast 524 603 41,000  Level FlightAware
01:04PM 35.7750 -94.5710 32° Northeast 524 603 41,000  Level FlightAware
01:04PM 35.8460 -94.5190 31° Northeast 524 603 41,000  Level FlightAware
01:05PM 35.9170 -94.4670 31° Northeast 524 603 41,000  Level FlightAware
01:06PM 36.0050 -94.4010 31° Northeast 524 603 41,000  Level FlightAware
01:06PM 36.0760 -94.3490 31° Northeast 524 603 41,000  Level FlightAware
01:07PM 36.1640 -94.2830 31° Northeast 524 603 41,000  Level FlightAware
01:08PM 36.2170 -94.2430 31° Northeast 524 603 41,000  Level FlightAware
01:08PM 36.2870 -94.1910 31° Northeast 524 603 41,000  Level FlightAware
01:09PM 36.3580 -94.1380 31° Northeast 524 603 41,000  Level FlightAware
01:10PM 36.4290 -94.0850 31° Northeast 524 603 41,000  Level FlightAware
01:10PM 36.4990 -94.0330 31° Northeast 524 603 41,000  Level FlightAware
01:11PM 36.7150 -93.8420 35° Northeast 522 601 41,000  Level FlightAware
01:12PM 36.8060 -93.7700 32° Northeast 522 601 41,000  Level FlightAware
01:12PM 36.8890 -93.7050 32° Northeast 523 602 41,000  Level FlightAware
01:13PM 36.9560 -93.6520 32° Northeast 523 602 41,000  Level FlightAware
01:14PM 37.0640 -93.5660 32° Northeast 524 603 41,000  Level FlightAware
01:14PM 37.1410 -93.5050 32° Northeast 526 605 41,000  Level FlightAware
01:15PM 37.2060 -93.4540 32° Northeast 526 605 41,000  Level FlightAware
01:16PM 37.2960 -93.3820 32° Northeast 527 606 41,000  Level FlightAware
01:16PM 37.3780 -93.3170 32° Northeast 527 606 41,000  Level FlightAware
01:17PM 37.4660 -93.2480 32° Northeast 527 606 41,000  Level FlightAware
01:18PM 37.5720 -93.1350 40° Northeast 531 611 41,000  Level FlightAware
01:19PM 37.6400 -93.0730 36° Northeast 531 611 41,000  Level FlightAware
01:19PM 37.7070 -93.0110 36° Northeast 531 611 41,000  Level FlightAware
01:20PM 37.7750 -92.9490 36° Northeast 531 611 41,000  Level FlightAware
01:21PM 37.8590 -92.8710 36° Northeast 531 611 41,000  Level FlightAware
01:22PM 37.9270 -92.8090 36° Northeast 531 611 41,000  Level FlightAware
01:22PM 38.0670 -92.6720 38° Northeast 537 618 41,000  Level FlightAware
01:23PM 38.1510 -92.5950 36° Northeast 537 618 41,000  Level FlightAware
01:24PM 38.2200 -92.5310 36° Northeast 537 618 41,000  Level FlightAware
01:24PM 38.2880 -92.4680 36° Northeast 537 618 41,000  Level FlightAware
01:25PM 38.3560 -92.4050 36° Northeast 537 618 41,000  Level FlightAware
01:26PM 38.4420 -92.3260 36° Northeast 537 618 41,000  Level FlightAware
01:26PM 38.4930 -92.2780 36° Northeast 537 618 41,000  Level FlightAware
01:27PM 38.5610 -92.2150 36° Northeast 537 618 41,000  Level FlightAware
01:28PM 38.6290 -92.1510 36° Northeast 537 618 41,000  Level FlightAware
01:28PM 38.6980 -92.0880 35° Northeast 537 618 41,000  Level FlightAware
01:29PM 38.8540 -91.9210 40° Northeast 497 572 41,000  Level FlightAware
01:30PM 38.9500 -91.8270 37° Northeast 493 567 41,000  Level FlightAware
01:31PM 39.0320 -91.7470 37° Northeast 490 564 41,000  Level FlightAware
01:31PM 39.1020 -91.6800 37° Northeast 483 556 41,000  Level FlightAware
01:32PM 39.1890 -91.5940 37° Northeast 485 558 41,000  Level FlightAware
01:33PM 39.2470 -91.5370 37° Northeast 487 560 41,000  Level FlightAware
01:33PM 39.3210 -91.4660 37° Northeast 487 560 41,000  Level FlightAware
01:34PM 39.4110 -91.3750 38° Northeast 489 563 41,000  Level FlightAware
01:35PM 39.5150 -91.2720 37° Northeast 487 560 41,000  Level FlightAware
01:36PM 39.6310 -91.1580 37° Northeast 484 557 41,000  Level FlightAware
01:37PM 39.7070 -91.0820 38° Northeast 482 555 41,000 -360 Level FlightAware
01:38PM 39.7920 -90.9970 38° Northeast 483 556 40,500 -1,200 Descending FlightAware
01:39PM 39.8750 -90.9140 37° Northeast 483 556 39,100 -1,860 Descending FlightAware
01:39PM 39.9440 -90.8430 38° Northeast 490 564 37,900 -1,980 Descending FlightAware
01:40PM 40.0180 -90.7690 37° Northeast 499 574 36,500 -2,220 Descending FlightAware
01:41PM 40.1000 -90.6860 38° Northeast 512 589 34,800 -2,280 Descending FlightAware
01:41PM 40.1750 -90.6100 38° Northeast 520 598 33,300 -1,320 Descending FlightAware
01:42PM 40.2600 -90.5230 38° Northeast 512 589 33,000 -240 Descending FlightAware
01:43PM 40.3410 -90.4360 39° Northeast 507 583 33,000  Level FlightAware
01:44PM 40.4370 -90.3040 46° Northeast 512 589 33,000  Level FlightAware
01:44PM 40.4980 -90.2150 48° Northeast 516 594 33,000 -600 Level FlightAware
01:45PM 40.5650 -90.1170 48° Northeast 507 583 32,200 -1,560 Descending FlightAware
01:46PM 40.6340 -90.0170 48° Northeast 501 577 30,800 -2,280 Descending FlightAware
01:47PM 40.6950 -89.9280 48° Northeast 507 583 29,000 -2,400 Descending FlightAware
01:47PM 40.7690 -89.8200 48° Northeast 504 580 27,400 -2,220 Descending FlightAware
01:48PM 40.8370 -89.7200 48° Northeast 500 575 25,700 -2,160 Descending FlightAware
01:49PM 40.8990 -89.6290 48° Northeast 492 566 24,400 -1,320 Descending FlightAware
01:49PM 40.9580 -89.5410 48° Northeast 461 531 24,000 -360 Descending FlightAware
01:50PM 41.0200 -89.4490 48° Northeast 437 503 23,900 -1,320 Descending FlightAware
01:51PM 41.0750 -89.3680 48° Northeast 451 519 22,200 -2,520 Descending FlightAware
01:52PM 41.1390 -89.2720 48° Northeast 458 527 20,400 -2,220 Descending FlightAware
01:52PM 41.1920 -89.1920 49° Northeast 450 518 19,100 -1,980 Descending FlightAware
01:53PM 41.2480 -89.1080 48° Northeast 445 512 17,800 -1,920 Descending FlightAware
01:54PM 41.3090 -89.0170 48° Northeast 434 499 16,400 -1,920 Descending FlightAware
01:54PM 41.3620 -88.9370 49° Northeast 425 489 15,100 -1,980 Descending FlightAware
01:55PM 41.4190 -88.8510 49° Northeast 422 486 13,600 -1,980 Descending FlightAware
01:56PM 41.4720 -88.7700 49° Northeast 413 475 12,300 -1,680 Descending FlightAware
01:56PM 41.5120 -88.7040 51° Northeast 401 461 11,500 -960 Descending FlightAware
01:57PM 41.5470 -88.6200 61° Northeast 370 426 11,100 -300 Descending FlightAware
01:58PM 41.5800 -88.5360 62° Northeast 346 398 11,100  Level FlightAware
01:58PM 41.6140 -88.4580 60° Northeast 344 396 11,100  Level FlightAware
01:59PM 41.6480 -88.4000 52° Northeast 348 400 11,100 -300 Level FlightAware
02:00PM 41.6930 -88.3220 52° Northeast 348 400 10,700 -900 Descending FlightAware
02:00PM 41.7320 -88.2550 52° Northeast 344 396 9,900 -1,020 Descending FlightAware
02:01PM 41.7560 -88.2150 51° Northeast 334 384 9,600 -660 Descending FlightAware
02:01PM 41.7840 -88.1670 52° Northeast 324 373 9,300 -720 Descending FlightAware
02:02PM 41.8110 -88.1210 52° Northeast 319 367 8,900 -1,020 Descending FlightAware
02:02PM 41.8340 -88.0790 54° Northeast 317 365 8,400 -1,080 Descending FlightAware
02:02PM 41.8480 -88.0590 47° Northeast 313 360 8,200 -840 Descending FlightAware
02:03PM 41.8650 -88.0480 26° Northeast 302 348 8,000 -600 Descending FlightAware
02:03PM 41.8880 -88.0440 North 288 331 7,900 -600 Descending FlightAware
02:03PM 41.9190 -88.0410 North 275 316 7,600 -780 Descending FlightAware
02:04PM 41.9560 -88.0370 North 266 306 7,200 -480 Descending FlightAware
02:05PM 41.9980 -88.0540 343° North 231 266 7,100 -540 Descending FlightAware
02:05PM 42.0150 -88.0750 317° Northwest 230 265 6,700 -1,080 Descending FlightAware
02:05PM 42.0330 -88.0970 318° Northwest 230 265 6,300 -720 Descending FlightAware
02:06PM 42.0580 -88.1290 316° Northwest 213 245 6,000 -540 Descending FlightAware
02:06PM 42.0770 -88.1520 318° Northwest 196 226 5,800 -600 Descending FlightAware
02:07PM 42.0930 -88.1710 319° Northwest 194 223 5,500 -900 Descending FlightAware
02:07PM 42.1160 -88.2000 317° Northwest 196 226 4,900 -1,080 Descending FlightAware
02:08PM 42.1520 -88.1880 14° North 214 246 4,200 -780 Descending FlightAware
02:08PM 42.1550 -88.1720 76° East 208 239 4,200 -480 Level FlightAware
02:09PM 42.1460 -88.1390 110° East 202 232 3,900 -900 Descending FlightAware
02:09PM 42.1390 -88.1230 121° Southeast 205 236 3,600 -960 Descending FlightAware
02:09PM 42.1260 -88.0900 118° Southeast 202 232 3,200 -600 Descending FlightAware
02:10PM 42.1090 -88.0670 135° Southeast 197 227 3,100  Descending FlightAware
02:10PM 42.0990 -88.0560 141° Southeast 197 227 3,200  Climbing FlightAware
02:11PM 42.0770 -88.0310 140° Southeast 201 231 3,100 -480 Descending FlightAware
02:11PM 42.0640 -88.0170 141° Southeast 200 230 2,800 -1,080 Descending FlightAware
02:11PM 42.0460 -87.9960 139° Southeast 189 217 2,300 -1,200 Descending FlightAware
02:12PM 42.0340 -87.9820 139° Southeast 174 200 1,900 -960 Descending FlightAware
02:12PM 42.0200 -87.9660 140° Southeast 156 180 1,600 -720 Descending FlightAware
02:12PM 42.0060 -87.9510 141° Southeast 143 165 1,300 -720 Descending FlightAware
02:13PM 41.9900 -87.9330 140° Southeast 146 168 900 -720 Descending FlightAware